createdAt,value
2019-03-30T00:02:06.511Z,35.03
2019-03-30T00:04:37.422Z,36.20
2019-03-30T00:07:07.717Z,34.30
2019-03-30T00:09:38.385Z,34.83
2019-03-30T00:12:08.598Z,28.83
2019-03-30T00:14:39.575Z,33.10
2019-03-30T00:17:10.261Z,37.27
2019-03-30T00:19:40.463Z,37.80
2019-03-30T00:22:10.440Z,32.90
2019-03-30T00:24:40.746Z,32.73
2019-03-30T00:27:11.140Z,36.63
2019-03-30T00:29:41.857Z,35.47
2019-03-30T00:32:12.450Z,40.10
2019-03-30T00:34:42.831Z,36.30
2019-03-30T00:37:13.112Z,33.17
2019-03-30T00:39:44.100Z,39.73
2019-03-30T00:42:14.941Z,36.80
2019-03-30T00:44:44.846Z,30.50
2019-03-30T00:47:14.706Z,32.87
2019-03-30T00:49:49.726Z,35.07
2019-03-30T00:52:18.039Z,31.37
2019-03-30T00:54:48.649Z,36.77
2019-03-30T00:57:19.257Z,27.80
2019-03-30T00:59:49.928Z,38.23
2019-03-30T01:02:20.701Z,33.93
2019-03-30T01:04:51.386Z,26.43
2019-03-30T01:07:21.666Z,37.67
2019-03-30T01:09:52.242Z,31.80
2019-03-30T01:12:22.856Z,29.67
2019-03-30T01:14:52.990Z,37.27
2019-03-30T01:17:24.133Z,36.63
2019-03-30T01:20:02.764Z,38.37
2019-03-30T01:22:26.800Z,28.90
2019-03-30T01:24:57.141Z,37.63
2019-03-30T01:27:27.813Z,32.57
2019-03-30T01:29:58.088Z,35.03
2019-03-30T01:32:28.773Z,31.47
2019-03-30T01:34:59.738Z,32.70
2019-03-30T01:37:30.344Z,31.20
2019-03-30T01:40:00.948Z,36.50
2019-03-30T01:42:31.716Z,24.70
2019-03-30T01:45:02.773Z,27.73
2019-03-30T01:47:36.386Z,33.57
2019-03-30T01:50:17.329Z,30.83
2019-03-30T01:52:39.976Z,28.90
2019-03-30T01:55:10.651Z,35.23
2019-03-30T01:57:41.314Z,31.67
2019-03-30T02:00:12.287Z,29.73
2019-03-30T02:02:42.590Z,30.97
2019-03-30T02:05:13.501Z,27.27
2019-03-30T02:07:44.377Z,34.90
2019-03-30T02:10:16.336Z,30.00
2019-03-30T02:12:47.375Z,35.47
2019-03-30T02:15:18.958Z,29.53
2019-03-30T02:17:49.673Z,31.10
2019-03-30T02:20:30.929Z,30.23
2019-03-30T02:23:01.829Z,27.00
2019-03-30T02:25:32.584Z,36.13
2019-03-30T02:28:02.933Z,28.10
2019-03-30T02:30:33.725Z,32.93
2019-03-30T02:33:04.234Z,29.57
2019-03-30T02:35:34.494Z,19.93
2019-03-30T02:38:04.854Z,28.53
2019-03-30T02:40:35.021Z,31.77
2019-03-30T02:43:05.554Z,31.07
2019-03-30T02:45:36.015Z,30.07
2019-03-30T02:48:06.691Z,26.97
2019-03-30T02:50:49.087Z,32.20
2019-03-30T02:53:09.326Z,26.27
2019-03-30T02:55:39.619Z,25.87
2019-03-30T02:58:10.633Z,35.20
2019-03-30T03:00:41.299Z,33.63
2019-03-30T03:03:11.181Z,24.43
2019-03-30T03:05:41.112Z,34.73
2019-03-30T03:08:11.778Z,27.40
2019-03-30T03:10:42.798Z,31.03
2019-03-30T03:13:13.019Z,28.53
2019-03-30T03:15:43.969Z,31.60
2019-03-30T03:18:14.263Z,30.03
2019-03-30T03:20:44.519Z,28.93
2019-03-30T03:23:15.089Z,23.27
2019-03-30T03:25:45.682Z,27.67
2019-03-30T03:28:16.454Z,27.83
2019-03-30T03:30:46.409Z,25.47
2019-03-30T03:33:17.121Z,26.30
2019-03-30T03:35:47.490Z,29.27
2019-03-30T03:38:17.506Z,33.10
2019-03-30T03:40:48.111Z,26.63
2019-03-30T03:43:18.746Z,31.53
2019-03-30T03:45:48.717Z,25.77
2019-03-30T03:48:19.210Z,28.00
2019-03-30T03:50:56.230Z,31.70
2019-03-30T03:53:26.125Z,31.43
2019-03-30T03:55:58.289Z,31.27
2019-03-30T03:58:32.135Z,29.50
2019-03-30T04:01:04.563Z,35.00
2019-03-30T04:03:35.630Z,33.83
2019-03-30T04:06:08.297Z,32.30
2019-03-30T04:08:39.538Z,32.17
2019-03-30T04:11:13.144Z,29.60
2019-03-30T04:13:46.337Z,19.87
2019-03-30T04:16:17.390Z,30.87
2019-03-30T04:18:48.387Z,29.77
2019-03-30T04:21:19.723Z,28.93
2019-03-30T04:23:54.036Z,32.90
2019-03-30T04:26:21.615Z,28.50
2019-03-30T04:28:52.885Z,35.87
2019-03-30T04:31:23.262Z,28.30
2019-03-30T04:33:53.129Z,28.77
2019-03-30T04:36:24.230Z,27.40
2019-03-30T04:38:55.126Z,26.73
2019-03-30T04:41:25.518Z,28.80
2019-03-30T04:43:55.673Z,32.30
2019-03-30T04:46:26.512Z,28.87
2019-03-30T04:48:56.773Z,34.17
2019-03-30T04:51:26.957Z,33.80
2019-03-30T04:53:57.241Z,31.43
2019-03-30T04:56:27.485Z,38.10
2019-03-30T04:58:58.065Z,31.57
2019-03-30T05:01:29.119Z,32.47
2019-03-30T05:03:59.467Z,31.20
2019-03-30T05:06:30.773Z,25.97
2019-03-30T05:09:01.127Z,36.57
2019-03-30T05:11:31.410Z,27.40
2019-03-30T05:14:02.257Z,32.00
2019-03-30T05:16:32.628Z,26.60
2019-03-30T05:19:02.517Z,26.57
2019-03-30T05:21:32.839Z,36.60
2019-03-30T05:24:03.463Z,27.80
2019-03-30T05:26:33.853Z,30.20
2019-03-30T05:29:04.001Z,32.43
2019-03-30T05:31:34.313Z,31.47
2019-03-30T05:34:04.898Z,32.53
2019-03-30T05:36:35.484Z,32.80
2019-03-30T05:39:05.721Z,38.20
2019-03-30T05:41:36.053Z,31.77
2019-03-30T05:44:06.397Z,34.60
2019-03-30T05:46:36.670Z,33.53
2019-03-30T05:49:07.914Z,24.03
2019-03-30T05:51:38.166Z,34.20
2019-03-30T05:54:09.282Z,26.57
2019-03-30T05:56:40.013Z,29.70
2019-03-30T05:59:10.746Z,30.80
2019-03-30T06:01:41.109Z,25.57
2019-03-30T06:04:11.975Z,29.60
2019-03-30T06:06:43.057Z,27.83
2019-03-30T06:09:13.404Z,20.23
2019-03-30T06:11:44.339Z,28.23
2019-03-30T06:14:14.874Z,34.93
2019-03-30T06:16:45.149Z,30.27
2019-03-30T06:19:15.374Z,31.33
2019-03-30T06:21:46.969Z,26.50
2019-03-30T06:24:17.553Z,25.63
2019-03-30T06:26:48.069Z,27.40
2019-03-30T06:29:18.776Z,26.97
2019-03-30T06:31:49.032Z,28.37
2019-03-30T06:34:19.033Z,32.57
2019-03-30T06:36:49.981Z,26.10
2019-03-30T06:39:20.677Z,28.53
2019-03-30T06:41:51.514Z,25.90
2019-03-30T06:44:22.056Z,24.97
2019-03-30T06:46:51.971Z,29.07
2019-03-30T06:49:22.497Z,29.13
2019-03-30T06:51:53.073Z,32.10
2019-03-30T06:54:23.223Z,31.40
2019-03-30T06:56:53.938Z,29.60
2019-03-30T06:59:24.936Z,27.33
2019-03-30T07:01:55.161Z,26.67
2019-03-30T07:04:25.545Z,31.40
2019-03-30T07:06:57.294Z,22.57
2019-03-30T07:09:30.829Z,27.50
2019-03-30T07:12:03.096Z,27.13
2019-03-30T07:14:36.177Z,26.17
2019-03-30T07:17:07.512Z,31.10
2019-03-30T07:19:40.678Z,27.57
2019-03-30T07:22:11.080Z,30.30
2019-03-30T07:24:41.326Z,25.70
2019-03-30T07:27:11.638Z,28.30
2019-03-30T07:29:41.966Z,28.53
2019-03-30T07:32:12.141Z,22.10
2019-03-30T07:34:42.326Z,27.27
2019-03-30T07:37:13.257Z,30.80
2019-03-30T07:39:44.016Z,25.70
2019-03-30T07:42:14.993Z,28.07
2019-03-30T07:44:45.296Z,25.40
2019-03-30T07:47:15.268Z,27.13
2019-03-30T07:49:45.438Z,27.00
2019-03-30T07:52:15.325Z,29.33
2019-03-30T07:54:45.515Z,27.37
2019-03-30T07:57:17.499Z,28.67
2019-03-30T07:59:48.225Z,29.20
2019-03-30T08:02:18.273Z,30.30
2019-03-30T08:04:49.034Z,32.30
2019-03-30T08:07:19.661Z,23.73
2019-03-30T08:09:49.732Z,30.63
2019-03-30T08:12:20.272Z,32.50
2019-03-30T08:14:50.811Z,22.80
2019-03-30T08:17:21.297Z,32.27
2019-03-30T08:19:51.931Z,29.47
2019-03-30T08:22:22.158Z,30.50
2019-03-30T08:24:52.101Z,32.60
2019-03-30T08:27:21.991Z,31.37
2019-03-30T08:29:52.651Z,31.67
2019-03-30T08:32:23.018Z,29.27
2019-03-30T08:34:53.001Z,31.80
2019-03-30T08:37:23.357Z,30.00
2019-03-30T08:39:53.642Z,31.80
2019-03-30T08:42:24.288Z,35.10
2019-03-30T08:44:54.946Z,39.20
2019-03-30T08:47:25.090Z,29.10
2019-03-30T08:49:55.856Z,35.47
2019-03-30T08:52:26.416Z,36.10
2019-03-30T08:54:57.048Z,38.73
2019-03-30T08:57:27.331Z,37.97
2019-03-30T08:59:58.290Z,41.20
2019-03-30T09:02:29.038Z,29.00
2019-03-30T09:04:58.897Z,47.37
2019-03-30T09:07:29.317Z,40.83
2019-03-30T09:09:59.612Z,40.43
2019-03-30T09:12:30.307Z,44.90
2019-03-30T09:15:00.607Z,41.40
2019-03-30T09:17:30.833Z,48.20
2019-03-30T09:20:01.091Z,42.43
2019-03-30T09:22:31.725Z,44.13
2019-03-30T09:25:01.941Z,37.57
2019-03-30T09:27:32.202Z,43.83
2019-03-30T09:30:02.634Z,41.57
2019-03-30T09:32:33.604Z,43.10
2019-03-30T09:35:03.600Z,41.63
2019-03-30T09:37:34.311Z,41.63
2019-03-30T09:40:05.786Z,36.77
2019-03-30T09:42:36.481Z,36.97
2019-03-30T09:45:07.240Z,39.80
2019-03-30T09:47:37.969Z,30.30
2019-03-30T09:50:09.467Z,33.53
2019-03-30T09:52:39.823Z,30.50
2019-03-30T09:55:10.497Z,33.10
2019-03-30T09:57:41.481Z,30.47
2019-03-30T10:00:13.582Z,31.23
2019-03-30T10:02:44.011Z,30.03
2019-03-30T10:05:14.269Z,28.97
2019-03-30T10:07:44.929Z,28.53
2019-03-30T10:10:15.871Z,27.60
2019-03-30T10:12:46.440Z,31.00
2019-03-30T10:15:16.825Z,31.70
2019-03-30T10:17:47.484Z,27.93
2019-03-30T10:20:18.455Z,30.97
2019-03-30T10:22:49.101Z,29.10
2019-03-30T10:25:19.418Z,28.93
2019-03-30T10:27:50.128Z,27.17
2019-03-30T10:30:20.410Z,26.63
2019-03-30T10:32:51.092Z,30.87
2019-03-30T10:35:21.576Z,28.70
2019-03-30T10:37:51.937Z,32.07
2019-03-30T10:40:22.655Z,30.30
2019-03-30T10:42:52.953Z,31.93
2019-03-30T10:45:23.281Z,27.47
2019-03-30T10:47:53.953Z,32.50
2019-03-30T10:50:24.720Z,20.17
2019-03-30T10:52:55.337Z,34.37
2019-03-30T10:55:25.735Z,30.40
2019-03-30T10:57:58.624Z,32.60
2019-03-30T11:00:46.813Z,28.90
2019-03-30T11:03:17.299Z,27.60
2019-03-30T11:05:47.852Z,26.53
2019-03-30T11:08:19.838Z,31.50
2019-03-30T11:10:50.041Z,30.20
2019-03-30T11:13:20.638Z,30.77
2019-03-30T11:15:51.431Z,28.33
2019-03-30T11:18:22.046Z,31.33
2019-03-30T11:20:52.513Z,30.73
2019-03-30T11:23:23.205Z,26.40
2019-03-30T11:25:53.589Z,33.37
2019-03-30T11:28:23.481Z,29.60
2019-03-30T11:30:53.756Z,31.97
2019-03-30T11:33:24.799Z,29.30
2019-03-30T11:35:55.471Z,28.40
2019-03-30T11:38:26.091Z,26.90
2019-03-30T11:40:56.350Z,32.07
2019-03-30T11:43:26.361Z,31.17
2019-03-30T11:45:57.085Z,29.77
2019-03-30T11:48:27.899Z,29.70
2019-03-30T11:50:58.241Z,27.90
2019-03-30T11:53:28.888Z,32.73
2019-03-30T11:55:59.308Z,32.60
2019-03-30T11:58:29.730Z,32.80
2019-03-30T12:00:59.735Z,28.10
2019-03-30T12:03:31.873Z,26.80
2019-03-30T12:06:02.530Z,30.30
2019-03-30T12:08:33.249Z,32.63
2019-03-30T12:11:04.928Z,29.37
2019-03-30T12:13:35.213Z,33.30
2019-03-30T12:16:05.216Z,28.60
2019-03-30T12:18:35.963Z,27.40
2019-03-30T12:21:05.950Z,36.67
2019-03-30T12:23:36.694Z,36.03
2019-03-30T12:26:07.570Z,31.07
2019-03-30T12:28:37.779Z,31.50
2019-03-30T12:31:07.817Z,26.13
2019-03-30T12:33:38.662Z,35.20
2019-03-30T12:36:09.215Z,31.40
2019-03-30T12:38:39.482Z,32.40
2019-03-30T12:41:09.806Z,25.93
2019-03-30T12:43:40.197Z,32.57
2019-03-30T12:46:10.166Z,32.43
2019-03-30T12:48:40.520Z,30.67
2019-03-30T12:51:11.020Z,32.87
2019-03-30T12:53:50.096Z,27.77
2019-03-30T12:56:13.367Z,29.27
2019-03-30T12:58:43.938Z,30.97
2019-03-30T13:01:15.678Z,33.37
2019-03-30T13:03:45.970Z,27.60
2019-03-30T13:06:16.598Z,31.70
2019-03-30T13:08:47.482Z,29.40
2019-03-30T13:11:18.065Z,29.90
2019-03-30T13:13:48.698Z,27.30
2019-03-30T13:16:19.423Z,27.90
2019-03-30T13:18:50.473Z,29.33
2019-03-30T13:21:21.023Z,32.63
2019-03-30T13:23:51.322Z,27.93
2019-03-30T13:26:21.641Z,29.67
2019-03-30T13:28:52.178Z,28.20
2019-03-30T13:31:22.578Z,29.40
2019-03-30T13:33:53.396Z,27.47
2019-03-30T13:36:39.129Z,31.43
2019-03-30T13:39:10.528Z,30.50
2019-03-30T13:41:41.428Z,29.17
2019-03-30T13:44:11.676Z,32.97
2019-03-30T13:46:42.755Z,29.60
2019-03-30T13:49:13.091Z,32.50
2019-03-30T13:51:43.821Z,31.60
2019-03-30T13:54:13.769Z,32.33
2019-03-30T13:56:44.408Z,30.27
2019-03-30T13:59:14.937Z,32.53
2019-03-30T14:01:45.671Z,28.73
2019-03-30T14:04:15.550Z,29.57
2019-03-30T14:06:45.994Z,33.10
2019-03-30T14:09:16.373Z,31.27
2019-03-30T14:11:47.685Z,30.73
2019-03-30T14:14:18.404Z,31.53
2019-03-30T14:16:48.389Z,30.40
2019-03-30T14:19:19.049Z,28.37
2019-03-30T14:21:50.353Z,30.77
2019-03-30T14:24:21.029Z,29.20
2019-03-30T14:26:51.818Z,29.10
2019-03-30T14:29:21.856Z,31.10
2019-03-30T14:31:52.128Z,28.00
2019-03-30T14:34:22.696Z,28.40
2019-03-30T14:36:53.095Z,31.27
2019-03-30T14:39:23.646Z,30.17
2019-03-30T14:41:53.976Z,24.53
2019-03-30T14:44:24.858Z,29.87
2019-03-30T14:46:55.595Z,29.83
2019-03-30T14:49:26.485Z,28.97
2019-03-30T14:51:56.701Z,30.03
2019-03-30T14:54:27.011Z,29.93
2019-03-30T14:56:57.036Z,34.00
2019-03-30T14:59:27.795Z,32.90
2019-03-30T15:01:58.553Z,32.90
2019-03-30T15:04:29.085Z,32.60
2019-03-30T15:06:59.965Z,39.90
2019-03-30T15:09:30.588Z,42.73
2019-03-30T15:12:00.621Z,40.57
2019-03-30T15:14:30.945Z,54.87
2019-03-30T15:17:01.226Z,40.10
2019-03-30T15:19:31.505Z,43.00
2019-03-30T15:22:02.167Z,45.50
2019-03-30T15:24:34.290Z,44.07
2019-03-30T15:27:04.277Z,45.20
2019-03-30T15:29:34.690Z,42.60
2019-03-30T15:32:05.456Z,44.73
2019-03-30T15:34:35.800Z,42.00
2019-03-30T15:37:05.670Z,40.90
2019-03-30T15:39:36.545Z,43.23
2019-03-30T15:42:06.891Z,40.27
2019-03-30T15:44:37.247Z,42.57
2019-03-30T15:47:07.711Z,50.67
2019-03-30T15:49:37.984Z,43.93
2019-03-30T15:52:14.098Z,41.40
2019-03-30T15:54:40.752Z,46.03
2019-03-30T15:57:14.193Z,42.40
2019-03-30T15:59:42.993Z,45.33
2019-03-30T16:02:14.198Z,45.60
2019-03-30T16:04:44.092Z,48.70
2019-03-30T16:07:13.969Z,47.43
2019-03-30T16:09:44.374Z,47.00
2019-03-30T16:12:14.656Z,48.17
2019-03-30T16:14:47.254Z,51.83
2019-03-30T16:17:17.606Z,46.07
2019-03-30T16:19:47.942Z,49.13
2019-03-30T16:22:18.741Z,54.80
2019-03-30T16:24:49.093Z,53.77
2019-03-30T16:27:28.759Z,44.33
2019-03-30T16:29:50.975Z,46.10
2019-03-30T16:32:21.685Z,52.80
2019-03-30T16:34:52.246Z,50.30
2019-03-30T16:37:22.555Z,47.10
2019-03-30T16:39:52.861Z,50.43
2019-03-30T16:42:23.082Z,51.80
2019-03-30T16:44:52.959Z,50.10
2019-03-30T16:47:23.127Z,46.50
2019-03-30T16:49:53.049Z,52.70
2019-03-30T16:52:24.347Z,52.93
2019-03-30T16:54:55.326Z,48.70
2019-03-30T16:57:25.649Z,51.63
2019-03-30T16:59:56.018Z,57.47
2019-03-30T17:02:26.316Z,55.03
2019-03-30T17:04:56.678Z,56.40
2019-03-30T17:07:27.273Z,51.80
2019-03-30T17:09:57.593Z,51.10
2019-03-30T17:12:28.374Z,52.50
2019-03-30T17:14:58.653Z,56.10
2019-03-30T17:17:28.976Z,56.40
2019-03-30T17:19:59.327Z,54.67
2019-03-30T17:22:29.509Z,65.43
2019-03-30T17:25:00.396Z,53.40
2019-03-30T17:27:30.768Z,58.00
2019-03-30T17:30:01.343Z,65.97
2019-03-30T17:32:31.990Z,63.27
2019-03-30T17:35:03.020Z,64.33
2019-03-30T17:37:33.743Z,69.90
2019-03-30T17:40:04.318Z,67.83
2019-03-30T17:42:34.577Z,68.63
2019-03-30T17:45:05.209Z,67.00
2019-03-30T17:47:35.831Z,73.00
2019-03-30T17:50:07.886Z,67.47
2019-03-30T17:52:37.773Z,68.10
2019-03-30T17:55:09.327Z,68.53
2019-03-30T17:57:39.887Z,69.00
2019-03-30T18:00:12.323Z,76.10
2019-03-30T18:02:42.750Z,75.07
2019-03-30T18:05:12.911Z,88.93
2019-03-30T18:07:43.102Z,78.50
2019-03-30T18:10:14.162Z,79.23
2019-03-30T18:12:44.662Z,80.03
2019-03-30T18:15:16.314Z,83.13
2019-03-30T18:17:46.908Z,79.77
2019-03-30T18:20:17.543Z,70.47
2019-03-30T18:22:48.220Z,73.23
2019-03-30T18:25:18.564Z,76.73
2019-03-30T18:27:48.790Z,75.83
2019-03-30T18:30:24.329Z,80.53
2019-03-30T18:32:54.669Z,89.57
2019-03-30T18:35:26.528Z,84.17
2019-03-30T18:37:57.525Z,78.70
2019-03-30T18:40:30.797Z,82.10
2019-03-30T18:43:02.487Z,91.10
2019-03-30T18:45:33.734Z,87.03
2019-03-30T18:48:22.310Z,92.23
2019-03-30T18:50:52.881Z,92.63
2019-03-30T18:53:22.838Z,90.60
2019-03-30T18:55:53.571Z,95.37
2019-03-30T18:58:24.193Z,87.63
2019-03-30T19:00:54.690Z,89.60
2019-03-30T19:03:26.003Z,90.07
2019-03-30T19:05:55.978Z,92.60
2019-03-30T19:08:26.309Z,89.80
2019-03-30T19:10:56.203Z,91.33
2019-03-30T19:13:27.297Z,99.13
2019-03-30T19:15:57.526Z,101.50
2019-03-30T19:18:27.826Z,98.70
2019-03-30T19:20:58.196Z,104.23
2019-03-30T19:23:28.952Z,98.37
2019-03-30T19:25:59.189Z,104.70
2019-03-30T19:28:29.636Z,102.23
2019-03-30T19:30:59.838Z,101.40
2019-03-30T19:33:30.796Z,107.83
2019-03-30T19:36:01.451Z,108.77
2019-03-30T19:38:32.325Z,109.70
2019-03-30T19:41:02.833Z,104.57
2019-03-30T19:43:32.793Z,123.37
2019-03-30T19:46:03.476Z,113.53
2019-03-30T19:48:36.804Z,115.93
2019-03-30T19:51:05.895Z,119.93
2019-03-30T19:53:36.161Z,113.07
2019-03-30T19:56:06.526Z,119.70
2019-03-30T19:58:37.109Z,118.93
2019-03-30T20:01:07.009Z,123.00
2019-03-30T20:03:37.012Z,127.93
2019-03-30T20:06:07.010Z,130.43
2019-03-30T20:08:38.043Z,126.30
2019-03-30T20:11:08.907Z,122.43
2019-03-30T20:13:39.208Z,129.60
2019-03-30T20:16:09.119Z,125.10
2019-03-30T20:18:39.729Z,121.97
2019-03-30T20:21:10.285Z,119.07
2019-03-30T20:23:41.021Z,128.47
2019-03-30T20:26:12.117Z,134.17
2019-03-30T20:28:42.877Z,126.20
2019-03-30T20:31:13.468Z,129.10
2019-03-30T20:33:43.859Z,129.93
2019-03-30T20:36:14.723Z,129.90
2019-03-30T20:38:45.768Z,122.63
2019-03-30T20:41:16.531Z,125.30
2019-03-30T20:43:46.441Z,123.83
2019-03-30T20:46:16.697Z,126.60
2019-03-30T20:48:46.950Z,123.67
2019-03-30T20:51:17.142Z,132.77
2019-03-30T20:53:48.010Z,126.33
2019-03-30T20:56:18.538Z,134.70
2019-03-30T20:58:48.479Z,135.03
2019-03-30T21:01:19.510Z,139.87
2019-03-30T21:03:49.447Z,132.30
2019-03-30T21:06:19.629Z,138.70
2019-03-30T21:08:49.544Z,131.40
2019-03-30T21:11:20.466Z,134.20
2019-03-30T21:13:51.013Z,136.43
2019-03-30T21:16:21.172Z,126.40
2019-03-30T21:18:52.098Z,149.50
2019-03-30T21:21:22.581Z,142.03
2019-03-30T21:23:53.657Z,142.67
2019-03-30T21:26:23.541Z,146.77
2019-03-30T21:28:54.199Z,140.53
2019-03-30T21:31:24.782Z,144.37
2019-03-30T21:33:55.249Z,147.13
2019-03-30T21:36:25.448Z,143.43
2019-03-30T21:38:55.661Z,154.13
2019-03-30T21:41:25.938Z,151.00
2019-03-30T21:43:56.498Z,158.80
2019-03-30T21:46:27.149Z,161.40
2019-03-30T21:48:57.366Z,153.60
2019-03-30T21:51:27.942Z,154.93
2019-03-30T21:53:58.889Z,150.53
2019-03-30T21:56:29.333Z,156.37
2019-03-30T21:59:00.409Z,138.70
2019-03-30T22:01:30.277Z,145.57
2019-03-30T22:04:00.522Z,147.20
2019-03-30T22:06:30.676Z,137.80
2019-03-30T22:09:02.230Z,139.87
2019-03-30T22:11:32.404Z,145.53
2019-03-30T22:14:02.341Z,145.77
2019-03-30T22:16:32.997Z,156.37
2019-03-30T22:19:03.365Z,149.63
2019-03-30T22:21:34.157Z,139.43
2019-03-30T22:24:05.026Z,154.73
2019-03-30T22:26:35.289Z,146.40
2019-03-30T22:29:05.599Z,149.13
2019-03-30T22:31:35.465Z,148.53
2019-03-30T22:34:25.131Z,155.53
2019-03-30T22:36:55.934Z,163.07
2019-03-30T22:39:26.617Z,154.13
2019-03-30T22:41:56.981Z,147.77
2019-03-30T22:44:27.629Z,159.43
2019-03-30T22:46:58.213Z,153.93
2019-03-30T22:49:28.201Z,156.33
2019-03-30T22:51:58.463Z,161.53
2019-03-30T22:54:29.070Z,157.10
2019-03-30T22:56:59.233Z,165.33
2019-03-30T22:59:29.853Z,165.90
2019-03-30T23:02:00.521Z,163.23
2019-03-30T23:04:30.758Z,163.13
2019-03-30T23:07:01.310Z,166.67
2019-03-30T23:09:32.228Z,161.47
2019-03-30T23:12:02.830Z,166.80
2019-03-30T23:14:33.585Z,149.13
2019-03-30T23:17:04.182Z,159.40
2019-03-30T23:19:34.057Z,160.27
2019-03-30T23:22:04.374Z,169.00
2019-03-30T23:24:35.037Z,162.23
2019-03-30T23:27:05.306Z,161.40
2019-03-30T23:29:36.251Z,167.97
2019-03-30T23:32:07.237Z,159.17
2019-03-30T23:34:38.149Z,156.97
2019-03-30T23:37:08.667Z,158.97
2019-03-30T23:39:39.865Z,149.80
2019-03-30T23:42:10.841Z,160.83
2019-03-30T23:44:41.162Z,156.90
2019-03-30T23:47:11.810Z,154.77
2019-03-30T23:49:42.227Z,160.23
2019-03-30T23:52:12.509Z,151.40
2019-03-30T23:54:43.413Z,150.80
2019-03-30T23:57:14.354Z,152.17
2019-03-30T23:59:44.866Z,145.87
